Time;durP1;ratioP1;P1;durP2;ratioP2;P2;SDS_P1;SDS_P2;PMS_P1;PMS_P2;Temp;Humidity;BMP_temperature;BMP_pressure;BME280_temperature;BME280_humidity;BME280_pressure;Samples;Min_cycle;Max_cycle;Signal;HPM_P1;HPM_P2
2021/07/23 00:00:34;;;;;;;6.29;2.02;;;;;;;19.73;46.11;99197.23;370804;107;1961968;-73
2021/07/23 00:01:46;;;;;;;6.51;2.21;;;;;;;19.80;46.28;99191.47;377869;106;3012939;-72
2021/07/23 00:02:51;;;;;;;4.67;1.83;;;;;;;19.68;46.36;99194.50;362404;108;2923988;-72
2021/07/23 00:04:04;;;;;;;5.23;2.23;;;;;;;19.78;46.13;99193.66;398296;104;1986057;-72
2021/07/23 00:05:17;;;;;;;8.00;2.57;;;;;;;19.75;46.54;99195.85;394204;101;2074955;-72
2021/07/23 00:06:24;;;;;;;4.61;2.09;;;;;;;19.65;46.09;99200.50;376842;105;1961975;-71
2021/07/23 00:07:37;;;;;;;6.10;2.30;;;;;;;19.74;46.37;99199.70;388319;104;2071848;-73
2021/07/23 00:08:42;;;;;;;5.59;1.89;;;;;;;19.61;46.51;99200.25;381844;105;1963006;-71
2021/07/23 00:09:54;;;;;;;2.98;1.87;;;;;;;19.72;46.47;99201.08;392308;103;1987015;-72
2021/07/23 00:10:59;;;;;;;4.58;1.98;;;;;;;19.62;46.46;99201.06;368476;109;1963882;-71
2021/07/23 00:12:23;;;;;;;6.01;2.56;;;;;;;19.61;46.47;99202.98;367784;109;1961973;-71
2021/07/23 00:13:35;;;;;;;6.49;2.34;;;;;;;19.71;46.63;99207.64;390355;104;2071023;-72
2021/07/23 00:14:40;;;;;;;6.31;2.52;;;;;;;19.58;46.46;99202.70;375528;107;1971047;-71
2021/07/23 00:15:53;;;;;;;5.54;2.29;;;;;;;19.67;46.70;99207.38;374409;108;2081015;-72
2021/07/23 00:16:58;;;;;;;5.22;2.45;;;;;;;19.54;46.70;99202.44;352243;112;2922018;-72
2021/07/23 00:18:22;;;;;;;5.05;2.31;;;;;;;19.53;46.65;99207.11;359080;112;1962992;-70
2021/07/23 00:19:28;;;;;;;5.52;1.95;;;;;;;19.47;46.81;99207.38;358952;112;1962873;-72
2021/07/23 00:20:40;;;;;;;4.89;2.61;;;;;;;19.61;47.01;99204.88;357565;106;2392053;-73
2021/07/23 00:21:48;;;;;;;8.42;2.98;;;;;;;19.44;46.95;99206.00;322936;110;2039970;-72
2021/07/23 00:23:01;;;;;;;6.58;2.06;;;;;;;19.51;47.08;99206.55;380960;106;1986954;-71
2021/07/23 00:24:06;;;;;;;7.42;2.85;;;;;;;19.38;47.01;99206.30;363389;109;1961992;-73
2021/07/23 00:25:29;;;;;;;5.56;2.31;;;;;;;19.37;47.04;99210.11;362963;110;1962023;-72
2021/07/23 00:26:36;;;;;;;5.76;1.81;;;;;;;19.32;47.26;99208.22;316754;109;2773994;-69
2021/07/23 00:27:48;;;;;;;4.63;2.13;;;;;;;19.39;47.34;99192.31;395942;104;1965053;-72
2021/07/23 00:28:53;;;;;;;4.82;2.21;;;;;;;19.30;47.19;99203.01;381929;105;1963096;-73
2021/07/23 00:30:07;;;;;;;5.04;2.35;;;;;;;19.38;47.41;99209.85;391458;104;1986061;-72
2021/07/23 00:31:12;;;;;;;6.52;2.36;;;;;;;19.24;47.39;99206.85;366661;107;1961957;-71
2021/07/23 00:32:36;;;;;;;8.35;3.20;;;;;;;19.21;47.38;99201.93;371098;107;1961944;-72
2021/07/23 00:33:47;;;;;;;6.77;3.58;;;;;;;19.35;47.68;99204.12;393697;104;1986001;-72
2021/07/23 00:34:53;;;;;;;5.41;3.01;;;;;;;19.22;47.52;99203.56;375763;107;1962930;-72
2021/07/23 00:36:06;;;;;;;6.44;3.09;;;;;;;19.32;47.63;99205.48;385369;106;2071986;-71
2021/07/23 00:37:12;;;;;;;6.69;3.46;;;;;;;19.21;47.35;99207.41;359877;107;2878070;-72
2021/07/23 00:38:36;;;;;;;6.13;3.02;;;;;;;19.19;47.46;99204.12;367328;109;1961986;-73
2021/07/23 00:39:43;;;;;;;6.76;2.69;;;;;;;19.18;47.44;99209.85;316799;109;2882929;-72
2021/07/23 00:40:55;;;;;;;5.38;2.83;;;;;;;19.28;47.84;99210.67;393885;104;1973067;-71
2021/07/23 00:42:01;;;;;;;6.58;2.99;;;;;;;19.18;47.52;99213.41;377550;107;1961885;-72
2021/07/23 00:43:17;;;;;;;8.42;3.15;;;;;;;19.30;47.65;99210.41;387425;106;1987007;-72
2021/07/23 00:44:23;;;;;;;6.34;2.43;;;;;;;19.17;47.69;99208.22;330513;109;2647964;-72
2021/07/23 00:45:48;;;;;;;5.24;2.41;;;;;;;19.16;47.62;99212.03;362806;110;1962001;-71
2021/07/23 00:46:57;;;;;;;6.43;2.62;;;;;;;19.11;47.68;99207.41;331600;110;1961929;-72
2021/07/23 00:48:09;;;;;;;4.92;2.22;;;;;;;19.14;47.96;99195.09;390094;104;1985761;-71
2021/07/23 00:49:16;;;;;;;4.49;2.11;;;;;;;19.09;47.64;99207.66;376274;107;1962025;-71
2021/07/23 00:50:30;;;;;;;6.50;2.47;;;;;;;19.17;48.07;99203.56;392412;104;1961981;-71
2021/07/23 00:51:36;;;;;;;5.79;2.67;;;;;;;19.06;48.00;99205.47;376708;107;1962073;-72
2021/07/23 00:53:02;;;;;;;5.40;2.53;;;;;;;19.07;47.85;99211.77;352062;106;1964000;-72
2021/07/23 00:54:15;;;;;;;5.42;2.24;;;;;;;19.17;47.86;99203.56;352211;103;2750851;-73
2021/07/23 00:55:21;;;;;;;7.74;2.13;;;;;;;19.07;48.01;99203.55;376186;105;1960907;-72
2021/07/23 00:56:36;;;;;;;7.10;2.47;;;;;;;19.17;48.01;99200.82;392152;104;2079877;-72
2021/07/23 00:57:43;;;;;;;7.64;2.70;;;;;;;19.03;48.35;99206.03;374176;107;1960916;-71
2021/07/23 00:59:07;;;;;;;5.17;1.86;;;;;;;18.99;48.32;99207.66;377099;107;1960898;-72
2021/07/23 01:00:20;;;;;;;4.81;1.73;;;;;;;19.10;48.19;99211.22;381966;106;1960903;-72
2021/07/23 01:01:30;;;;;;;12.14;2.59;;;;;;;18.98;48.27;99213.42;364876;109;1968909;-72
2021/07/23 01:02:37;;;;;;;5.79;1.92;;;;;;;18.97;48.39;99209.83;356018;111;1961965;-73
2021/07/23 01:03:50;;;;;;;5.40;2.23;;;;;;;19.06;48.45;99210.14;379638;108;1960980;-74
2021/07/23 01:04:56;;;;;;;5.03;2.37;;;;;;;18.95;48.38;99211.23;291318;109;2311006;-72
2021/07/23 01:06:08;;;;;;;6.14;2.62;;;;;;;19.04;48.39;99210.39;388709;103;2072042;-72
2021/07/23 01:07:13;;;;;;;5.24;2.53;;;;;;;18.91;48.67;99207.38;375236;105;1961879;-72
2021/07/23 01:08:37;;;;;;;4.48;1.91;;;;;;;18.91;48.45;99207.38;354762;108;1962924;-71
2021/07/23 01:10:00;;;;;;;5.54;2.31;;;;;;;18.99;48.51;99199.44;400987;101;1985958;-72
2021/07/23 01:11:08;;;;;;;6.77;2.02;;;;;;;18.88;48.62;99206.00;350255;113;1963013;-72
2021/07/23 01:12:21;;;;;;;7.49;2.03;;;;;;;18.98;48.60;99196.99;391791;104;1964012;-71
2021/07/23 01:13:27;;;;;;;5.92;1.93;;;;;;;18.85;48.70;99199.16;323322;106;2090918;-72
2021/07/23 01:14:51;;;;;;;9.68;2.63;;;;;;;18.85;48.74;99209.29;372565;106;1961793;-72
2021/07/23 01:16:04;;;;;;;6.55;2.90;;;;;;;18.94;48.75;99193.96;392291;104;1961995;-72
2021/07/23 01:17:11;;;;;;;7.37;2.53;;;;;;;18.83;48.95;99198.60;368607;108;1969868;-72
2021/07/23 01:18:16;;;;;;;10.02;2.27;;;;;;;18.82;48.74;99205.18;369801;108;1961791;-71
2021/07/23 01:19:26;;;;;;;5.56;1.97;;;;;;;18.82;48.70;99207.92;377846;107;1962051;-70
2021/07/23 01:20:33;;;;;;;6.18;2.35;;;;;;;18.78;48.98;99214.20;355041;109;2874977;-71
2021/07/23 01:21:49;;;;;;;5.37;1.93;;;;;;;18.86;49.05;99205.45;388174;106;1986919;-70
2021/07/23 01:22:57;;;;;;;5.43;2.09;;;;;;;18.75;49.08;99206.53;364038;109;1962079;-71
2021/07/23 01:24:14;;;;;;;5.78;1.81;;;;;;;18.80;49.43;99206.55;393911;104;1986982;-73
2021/07/23 01:25:23;;;;;;;5.09;2.68;;;;;;;18.63;49.49;99202.11;372876;107;1962937;-71
2021/07/23 01:26:36;;;;;;;5.33;2.01;;;;;;;18.77;49.34;99207.09;386670;106;1985909;-72
2021/07/23 01:28:59;;;;;;;4.54;1.88;;;;;;;18.76;49.53;99210.91;339903;104;2186051;-72
2021/07/23 01:30:09;;;;;;;5.73;1.89;;;;;;;18.64;49.45;99213.87;375856;106;1964068;-73
2021/07/23 01:31:21;;;;;;;4.46;1.72;;;;;;;18.74;49.39;99207.61;402018;102;1986904;-73
2021/07/23 01:32:26;;;;;;;5.49;2.43;;;;;;;18.58;49.73;99212.22;384866;104;1961975;-72
2021/07/23 01:33:50;;;;;;;4.84;2.15;;;;;;;18.55;49.83;99204.53;385011;105;1961965;-71
2021/07/23 01:35:03;;;;;;;4.03;1.97;;;;;;;18.65;50.02;99213.58;386701;104;1987007;-73
2021/07/23 01:36:15;;;;;;;4.29;1.83;;;;;;;18.61;49.94;99212.49;393885;103;1972895;-73
2021/07/23 01:37:40;;;;;;;5.37;1.85;;;;;;;18.49;50.18;99200.14;364610;107;1964092;-72
2021/07/23 01:38:54;;;;;;;5.04;1.83;;;;;;;18.60;49.92;99210.02;392541;104;1974087;-72
2021/07/23 01:40:01;;;;;;;5.77;2.18;;;;;;;18.48;49.88;99207.53;375448;107;1962017;-73
2021/07/23 01:41:25;;;;;;;3.45;1.97;;;;;;;18.44;49.90;99200.94;313026;107;2152973;-71
2021/07/23 01:42:38;;;;;;;7.63;2.28;;;;;;;18.59;50.11;99202.91;392148;104;1987000;-72
2021/07/23 01:43:50;;;;;;;4.79;1.96;;;;;;;18.58;50.16;99204.83;374438;104;1985865;-71
2021/07/23 01:45:16;;;;;;;4.87;2.09;;;;;;;18.43;50.28;99200.13;376254;106;1962980;-73
2021/07/23 01:46:23;;;;;;;7.28;2.58;;;;;;;18.43;50.32;99202.86;378928;106;1960998;-72
2021/07/23 01:47:36;;;;;;;4.91;2.33;;;;;;;18.50;50.36;99202.63;328137;104;2296942;-71
2021/07/23 01:48:41;;;;;;;3.91;2.11;;;;;;;18.33;50.56;99202.83;367580;107;1960906;-72
2021/07/23 01:49:48;;;;;;;5.51;2.16;;;;;;;18.33;50.62;99207.48;370444;107;1960925;-72
2021/07/23 01:51:01;;;;;;;5.16;1.97;;;;;;;18.40;50.92;99206.14;362912;103;2613957;-73
2021/07/23 01:52:06;;;;;;;7.61;1.93;;;;;;;18.27;50.73;99206.64;335553;105;2026003;-73
2021/07/23 01:53:19;;;;;;;5.46;2.22;;;;;;;18.21;50.90;99207.72;383377;105;1960851;-72
2021/07/23 01:54:31;;;;;;;5.48;1.91;;;;;;;18.28;50.94;99202.80;358590;106;2509074;-73
2021/07/23 01:55:37;;;;;;;4.46;1.82;;;;;;;18.19;51.13;99212.62;344527;107;1960875;-72
2021/07/23 01:56:49;;;;;;;4.51;1.89;;;;;;;18.27;50.94;99214.84;401940;101;1984786;-72
2021/07/23 01:57:57;;;;;;;5.15;1.99;;;;;;;18.13;50.92;99214.52;334382;103;2835970;-72
2021/07/23 01:59:22;;;;;;;3.64;2.01;;;;;;;18.14;50.88;99207.95;356433;103;2478868;-72
2021/07/23 02:00:28;;;;;;;5.17;2.22;;;;;;;18.13;51.00;99202.77;383238;104;1960811;-72
2021/07/23 02:01:41;;;;;;;5.45;1.98;;;;;;;18.27;51.02;99216.77;392356;104;2071043;-73
2021/07/23 02:02:51;;;;;;;7.26;2.03;;;;;;;18.11;50.96;99213.95;374486;105;1962022;-73
2021/07/23 02:03:59;;;;;;;4.55;1.98;;;;;;;18.14;50.96;99207.95;365871;108;1962001;-71
2021/07/23 02:05:12;;;;;;;7.65;2.48;;;;;;;18.26;51.26;99212.36;388601;104;2073005;-73
2021/07/23 02:06:24;;;;;;;6.56;2.69;;;;;;;18.23;51.37;99210.98;389661;103;2072026;-72
2021/07/23 02:07:48;;;;;;;4.18;1.76;;;;;;;18.15;51.31;99214.23;361035;105;1962051;-72
2021/07/23 02:08:54;;;;;;;7.13;2.01;;;;;;;18.16;51.06;99215.90;377648;105;1963084;-71
2021/07/23 02:10:09;;;;;;;5.08;2.00;;;;;;;18.27;50.84;99220.31;406735;101;1986942;-73
2021/07/23 02:11:15;;;;;;;5.33;2.13;;;;;;;18.17;50.87;99218.34;389586;103;1961990;-71
2021/07/23 02:12:28;;;;;;;6.94;2.35;;;;;;;18.30;51.07;99218.95;344240;104;2828029;-73
2021/07/23 02:13:44;;;;;;;6.83;2.59;;;;;;;18.20;51.07;99219.73;375182;106;1961978;-72
2021/07/23 02:15:09;;;;;;;8.21;2.53;;;;;;;18.21;51.16;99219.47;307778;107;2213929;-73
2021/07/23 02:16:21;;;;;;;6.02;2.22;;;;;;;18.30;51.37;99211.57;391539;104;2071933;-70
2021/07/23 02:17:26;;;;;;;6.88;2.63;;;;;;;18.20;50.93;99214.26;368905;108;1964036;-73
2021/07/23 02:18:39;;;;;;;6.16;2.73;;;;;;;18.29;50.79;99212.67;374803;104;2071991;-73
2021/07/23 02:19:46;;;;;;;6.66;2.87;;;;;;;18.19;51.19;99213.44;378858;105;1962002;-72
2021/07/23 02:21:11;;;;;;;7.72;2.33;;;;;;;18.17;51.07;99214.80;375559;107;1962910;-72
2021/07/23 02:22:24;;;;;;;5.71;2.38;;;;;;;18.27;50.95;99209.37;346811;106;2708026;-73
2021/07/23 02:23:30;;;;;;;5.54;2.01;;;;;;;18.14;51.14;99204.41;370006;107;1963758;-73
2021/07/23 02:24:42;;;;;;;4.66;2.04;;;;;;;18.31;51.20;99215.12;405975;101;1986025;-72
2021/07/23 02:25:50;;;;;;;7.01;2.51;;;;;;;18.18;51.25;99213.73;336901;104;2758016;-71
2021/07/23 02:26:56;;;;;;;4.00;2.22;;;;;;;18.18;51.25;99216.46;386030;103;1962074;-71
2021/07/23 02:28:08;;;;;;;4.18;1.99;;;;;;;18.26;51.36;99212.36;393685;104;1987054;-71
2021/07/23 02:29:16;;;;;;;7.06;2.39;;;;;;;18.15;51.40;99215.08;375548;107;1962964;-72
2021/07/23 02:30:25;;;;;;;5.16;2.07;;;;;;;18.14;51.48;99218.07;329469;107;2665964;-70
2021/07/23 02:31:37;;;;;;;6.46;2.54;;;;;;;18.24;51.44;99216.20;386237;106;2073004;-71
2021/07/23 02:32:44;;;;;;;6.22;2.08;;;;;;;18.11;51.47;99210.41;373228;107;1961991;-71
2021/07/23 02:33:50;;;;;;;5.35;2.33;;;;;;;18.13;51.53;99213.70;321719;107;2882965;-71
2021/07/23 02:35:03;;;;;;;5.19;1.90;;;;;;;18.20;51.84;99220.54;399676;101;1962088;-72
2021/07/23 02:36:16;;;;;;;6.18;2.24;;;;;;;18.15;51.89;99215.08;386679;104;2896963;-70
2021/07/23 02:37:41;;;;;;;4.91;2.43;;;;;;;18.01;51.98;99213.91;363171;108;2883035;-72
2021/07/23 02:38:53;;;;;;;4.87;1.98;;;;;;;18.15;51.88;99208.77;394776;103;1966967;-71
2021/07/23 02:40:00;;;;;;;5.85;2.24;;;;;;;18.01;51.90;99208.44;374835;106;1962136;-72
2021/07/23 02:41:26;;;;;;;6.22;2.42;;;;;;;17.98;51.83;99217.98;325159;106;2852966;-71
2021/07/23 02:42:38;;;;;;;6.62;2.18;;;;;;;18.10;51.95;99206.86;382996;106;2081047;-72
2021/07/23 02:43:47;;;;;;;4.41;2.51;;;;;;;17.91;51.93;99211.93;369000;109;1962016;-70
2021/07/23 02:44:57;;;;;;;6.30;2.34;;;;;;;18.03;51.99;99208.19;394590;104;1987039;-72
2021/07/23 02:46:02;;;;;;;4.78;2.12;;;;;;;17.95;51.84;99212.24;375348;106;1962017;-73
2021/07/23 02:47:15;;;;;;;6.31;2.02;;;;;;;18.05;52.03;99209.56;396313;103;1985983;-72
2021/07/23 02:48:22;;;;;;;6.67;2.08;;;;;;;17.90;52.21;99209.48;349372;105;1962020;-72
2021/07/23 02:49:47;;;;;;;5.12;1.99;;;;;;;17.93;52.07;99208.95;341952;105;2602334;-73
2021/07/23 02:50:59;;;;;;;7.14;2.45;;;;;;;18.11;52.32;99199.47;397048;104;1964056;-72
2021/07/23 02:52:06;;;;;;;6.69;2.21;;;;;;;18.00;51.84;99204.89;382377;104;1969892;-72
2021/07/23 02:53:19;;;;;;;5.39;2.39;;;;;;;18.09;51.78;99198.91;396222;104;1986056;-72
2021/07/23 02:54:26;;;;;;;6.18;2.23;;;;;;;17.98;51.73;99201.59;379582;105;1962035;-72
2021/07/23 02:55:53;;;;;;;11.06;3.24;;;;;;;17.98;51.90;99214.44;377824;106;1962021;-71
2021/07/23 02:57:06;;;;;;;6.66;2.85;;;;;;;18.09;51.89;99207.92;392496;104;1985865;-71
2021/07/23 02:58:13;;;;;;;6.21;2.78;;;;;;;18.01;51.55;99209.25;375962;107;1961868;-72
2021/07/23 02:59:25;;;;;;;7.72;2.94;;;;;;;18.19;51.55;99215.36;394966;104;1987026;-73
2021/07/23 03:00:32;;;;;;;5.58;2.76;;;;;;;18.21;51.28;99210.45;337619;109;2360995;-72
2021/07/23 03:01:38;;;;;;;7.45;3.03;;;;;;;18.14;51.57;99216.16;373013;107;1962018;-72
2021/07/23 03:02:50;;;;;;;5.93;3.11;;;;;;;18.32;51.06;99216.78;381145;108;1985907;-72
2021/07/23 03:03:57;;;;;;;8.38;3.01;;;;;;;18.15;51.15;99214.23;362177;111;1961999;-71
2021/07/23 03:05:12;;;;;;;7.31;3.04;;;;;;;18.26;51.41;99218.67;391611;104;1961057;-72
2021/07/23 03:06:18;;;;;;;6.44;3.14;;;;;;;18.22;51.12;99221.11;297527;108;2276887;-73
2021/07/23 03:07:42;;;;;;;7.15;3.35;;;;;;;18.16;51.32;99216.72;369686;108;1961073;-72
2021/07/23 03:08:54;;;;;;;5.61;2.55;;;;;;;18.29;51.25;99217.33;397110;103;1985011;-73
2021/07/23 03:10:01;;;;;;;6.93;3.06;;;;;;;18.21;51.11;99222.20;380204;105;1963989;-72
2021/07/23 03:11:15;;;;;;;6.41;3.50;;;;;;;18.34;51.00;99206.41;345538;103;2110025;-72
2021/07/23 03:12:25;;;;;;;9.74;3.34;;;;;;;18.22;51.15;99212.91;374098;107;1961920;-73
2021/07/23 03:13:49;;;;;;;7.72;3.21;;;;;;;18.24;51.02;99212.65;326026;107;2078000;-73
2021/07/23 03:14:54;;;;;;;8.75;2.93;;;;;;;18.26;50.86;99217.83;356157;106;1961878;-71
2021/07/23 03:16:11;;;;;;;9.32;3.58;;;;;;;18.27;50.93;99220.31;372289;107;1962878;-72
2021/07/23 03:17:20;;;;;;;7.12;3.63;;;;;;;18.32;51.29;99214.86;394179;104;1986013;-72
2021/07/23 03:18:26;;;;;;;10.65;3.81;;;;;;;18.21;51.29;99214.00;378906;106;1961913;-73
2021/07/23 03:19:31;;;;;;;6.65;3.34;;;;;;;18.20;51.19;99215.08;375648;106;1962064;-72
2021/07/23 03:20:44;;;;;;;8.34;3.86;;;;;;;18.28;51.24;99215.66;327487;104;2298025;-71
2021/07/23 03:21:55;;;;;;;5.51;3.00;;;;;;;18.14;51.20;99210.69;359332;105;1962059;-73
2021/07/23 03:23:07;;;;;;;7.64;3.68;;;;;;;18.18;51.29;99213.73;387059;106;1985986;-73
2021/07/23 03:24:23;;;;;;;7.76;3.74;;;;;;;18.16;51.07;99213.16;367381;109;1964018;-72
2021/07/23 03:25:49;;;;;;;12.29;3.98;;;;;;;18.22;50.87;99218.38;364856;110;1961911;-71
2021/07/23 03:27:01;;;;;;;8.81;3.91;;;;;;;18.32;50.94;99206.66;393555;103;1985929;-71
2021/07/23 03:28:06;;;;;;;7.97;3.87;;;;;;;18.22;50.84;99212.91;377572;107;1961997;-73
2021/07/23 03:29:20;;;;;;;7.27;3.83;;;;;;;18.24;51.17;99210.73;380055;108;1985981;-72
2021/07/23 03:30:35;;;;;;;10.32;4.07;;;;;;;18.30;50.82;99216.22;380995;105;1986798;-73
2021/07/23 03:31:40;;;;;;;10.77;4.73;;;;;;;18.24;50.70;99221.66;308377;109;2133985;-73
2021/07/23 03:32:52;;;;;;;8.96;4.78;;;;;;;18.35;50.95;99213.51;394229;104;1985921;-72
2021/07/23 03:33:58;;;;;;;8.92;3.83;;;;;;;18.20;50.84;99216.99;375153;105;1964012;-72
2021/07/23 03:35:29;;;;;;;7.21;4.45;;;;;;;18.14;50.84;99209.87;365841;110;1965074;-73
2021/07/23 03:36:41;;;;;;;9.48;3.89;;;;;;;18.44;50.74;99217.35;394994;104;1989114;-72
2021/07/23 03:37:48;;;;;;;6.87;3.13;;;;;;;18.34;50.70;99209.95;373697;106;1962037;-71
2021/07/23 03:39:00;;;;;;;7.13;3.39;;;;;;;18.46;50.51;99213.26;395336;104;1986072;-72
2021/07/23 03:40:11;;;;;;;6.66;3.66;;;;;;;18.49;50.56;99209.16;379625;108;1987150;-73
2021/07/23 03:41:36;;;;;;;9.48;3.68;;;;;;;18.33;50.75;99210.21;348036;111;1961904;-72
2021/07/23 03:42:48;;;;;;;8.96;4.11;;;;;;;18.46;50.67;99215.18;385621;106;1986064;-72
2021/07/23 03:43:56;;;;;;;9.34;3.96;;;;;;;18.37;50.58;99214.07;321088;108;2776019;-73
2021/07/23 03:45:20;;;;;;;7.02;3.81;;;;;;;18.42;50.58;99214.91;365929;110;1962928;-69
2021/07/23 03:46:32;;;;;;;9.72;4.47;;;;;;;18.57;50.46;99219.58;395711;104;2080127;-71
2021/07/23 03:47:38;;;;;;;9.71;4.49;;;;;;;18.47;50.62;99222.31;380640;105;1962960;-73
2021/07/23 03:48:44;;;;;;;9.09;3.81;;;;;;;18.47;50.27;99219.58;381502;103;1962021;-73
2021/07/23 03:49:57;;;;;;;10.18;4.64;;;;;;;18.55;50.26;99226.41;358840;101;2731029;-73
2021/07/23 03:51:03;;;;;;;7.80;4.10;;;;;;;18.45;50.26;99228.03;387230;103;1962904;-73
2021/07/23 03:52:15;;;;;;;7.76;4.14;;;;;;;18.58;50.44;99225.90;397391;104;1984770;-73
2021/07/23 03:53:26;;;;;;;9.87;4.37;;;;;;;18.52;50.48;99219.56;378810;105;1960711;-73
2021/07/23 03:54:51;;;;;;;8.42;4.62;;;;;;;18.56;50.26;99217.13;381054;105;1960930;-72
2021/07/23 03:56:07;;;;;;;8.35;4.42;;;;;;;18.64;50.30;99217.42;394505;104;2070802;-73
2021/07/23 03:57:16;;;;;;;9.38;3.42;;;;;;;18.58;50.13;99217.69;375276;107;1960920;-73
2021/07/23 03:58:28;;;;;;;6.91;3.39;;;;;;;18.72;49.92;99220.73;392976;104;2071856;-73
2021/07/23 03:59:34;;;;;;;7.53;3.06;;;;;;;18.58;50.10;99214.95;375144;105;1960838;-72
2021/07/23 04:00:48;;;;;;;10.19;3.24;;;;;;;18.75;49.83;99210.08;359241;105;2424900;-73
2021/07/23 04:02:00;;;;;;;7.75;3.39;;;;;;;18.80;49.86;99218.30;390790;104;2071905;-73
2021/07/23 04:03:25;;;;;;;7.09;2.84;;;;;;;18.72;49.56;99215.25;375623;105;1961933;-74
2021/07/23 04:04:32;;;;;;;8.11;3.06;;;;;;;18.76;49.60;99221.84;373734;106;1962039;-74
2021/07/23 04:05:45;;;;;;;9.22;3.18;;;;;;;18.88;49.42;99223.24;399087;104;2079918;-73
2021/07/23 04:06:58;;;;;;;8.04;3.61;;;;;;;18.80;49.48;99218.30;381093;105;1962008;-73
2021/07/23 04:08:04;;;;;;;7.15;3.59;;;;;;;18.81;49.62;99222.67;373546;105;1962034;-72
2021/07/23 04:09:13;;;;;;;9.09;3.38;;;;;;;18.84;49.55;99218.58;372814;105;1961982;-73
2021/07/23 04:10:27;;;;;;;7.22;3.14;;;;;;;19.00;49.49;99211.20;389358;104;1986010;-72
2021/07/23 04:12:54;;;;;;;8.11;3.72;;;;;;;18.98;49.79;99216.97;345298;104;2863978;-73
2021/07/23 04:14:01;;;;;;;8.85;3.44;;;;;;;18.86;49.68;99217.21;379332;105;1962037;-72
2021/07/23 04:15:13;;;;;;;8.25;3.47;;;;;;;19.11;49.73;99213.69;389881;104;1986020;-73
2021/07/23 04:16:24;;;;;;;10.20;3.77;;;;;;;19.10;49.26;99212.06;310070;108;2757980;-71
2021/07/23 04:17:48;;;;;;;6.46;2.84;;;;;;;19.01;49.46;99212.87;361920;110;1961918;-73
2021/07/23 04:19:01;;;;;;;5.96;3.23;;;;;;;19.15;49.35;99213.95;385179;106;1965056;-72
2021/07/23 04:20:17;;;;;;;8.30;3.84;;;;;;;19.10;49.45;99214.80;364934;109;1962019;-73
2021/07/23 04:21:31;;;;;;;7.94;3.33;;;;;;;19.21;49.57;99217.52;357972;104;2591055;-72
2021/07/23 04:22:37;;;;;;;7.51;2.81;;;;;;;19.13;49.57;99209.84;376975;105;1964068;-72
2021/07/23 04:23:55;;;;;;;8.08;3.47;;;;;;;19.27;49.18;99216.44;349534;108;1988991;-72
2021/07/23 04:25:01;;;;;;;14.66;4.18;;;;;;;19.19;49.26;99216.98;356758;112;1962042;-73
2021/07/23 04:26:26;;;;;;;10.38;4.03;;;;;;;19.21;49.50;99212.04;339527;112;1961913;-73
2021/07/23 04:27:38;;;;;;;8.87;3.81;;;;;;;19.37;49.40;99210.96;393135;104;1986003;-72
2021/07/23 04:28:51;;;;;;;6.83;3.26;;;;;;;19.29;49.18;99212.33;357146;105;1961863;-70
2021/07/23 04:29:58;;;;;;;8.78;3.74;;;;;;;19.30;49.06;99207.67;371706;106;1962009;-72
2021/07/23 04:31:11;;;;;;;9.32;4.11;;;;;;;19.41;49.01;99208.48;326465;106;2231027;-73
2021/07/23 04:32:18;;;;;;;8.73;3.43;;;;;;;19.33;49.10;99205.19;366174;107;1961972;-73
2021/07/23 04:33:23;;;;;;;8.02;3.65;;;;;;;19.33;49.02;99205.19;369355;107;1962095;-72
2021/07/23 04:34:38;;;;;;;6.66;3.16;;;;;;;19.37;49.14;99215.59;363982;105;1961922;-72
2021/07/23 04:35:48;;;;;;;9.20;3.87;;;;;;;19.41;49.06;99212.04;364945;108;1962014;-71
2021/07/23 04:37:01;;;;;;;11.57;4.20;;;;;;;19.51;49.00;99214.77;385555;104;2980967;-73
2021/07/23 04:38:08;;;;;;;7.39;3.40;;;;;;;19.42;49.12;99208.19;373039;107;1962061;-72
2021/07/23 04:39:24;;;;;;;9.01;4.11;;;;;;;19.62;48.73;99209.28;394104;104;1986067;-73
2021/07/23 04:40:32;;;;;;;9.29;4.05;;;;;;;19.58;48.63;99211.73;328089;107;2668014;-72
2021/07/23 04:41:37;;;;;;;8.10;3.84;;;;;;;19.58;48.34;99214.47;370935;107;1961884;-72
2021/07/23 04:42:49;;;;;;;9.61;4.56;;;;;;;19.73;48.42;99210.93;395046;104;1987026;-73
2021/07/23 04:43:55;;;;;;;7.67;3.78;;;;;;;19.65;48.54;99216.95;375567;107;1960686;-75
2021/07/23 04:45:05;;;;;;;8.02;4.29;;;;;;;19.66;48.63;99208.48;373401;107;1962094;-73
2021/07/23 04:46:17;;;;;;;9.61;4.00;;;;;;;19.78;48.14;99205.44;365800;104;2437925;-73
2021/07/23 04:47:24;;;;;;;7.49;3.59;;;;;;;19.70;48.15;99214.23;378321;107;1961943;-73
2021/07/23 04:48:38;;;;;;;9.73;4.79;;;;;;;19.84;48.18;99207.05;338442;106;2784057;-73
2021/07/23 04:49:58;;;;;;;10.14;4.39;;;;;;;19.74;48.13;99207.08;325513;105;2093043;-73
2021/07/23 04:51:16;;;;;;;8.25;3.91;;;;;;;19.78;47.96;99210.10;346226;114;1961931;-73
2021/07/23 04:52:24;;;;;;;8.19;3.68;;;;;;;19.80;48.10;99208.73;356024;111;1962016;-73
2021/07/23 04:53:48;;;;;;;7.83;3.90;;;;;;;19.84;47.98;99203.50;360914;109;1961946;-73
2021/07/23 04:55:07;;;;;;;8.00;3.41;;;;;;;19.86;47.92;99207.61;345058;115;1962007;-73
2021/07/23 04:56:16;;;;;;;8.58;3.87;;;;;;;19.99;47.88;99201.53;389369;106;1985899;-74
2021/07/23 04:58:23;;;;;;;7.44;3.58;;;;;;;20.09;47.61;99208.09;403115;101;1985973;-74
2021/07/23 04:59:29;;;;;;;6.66;3.06;;;;;;;20.01;47.73;99208.68;335713;105;2776989;-73
2021/07/23 05:00:41;;;;;;;9.37;3.43;;;;;;;20.12;47.62;99208.34;386466;106;1961874;-74
2021/07/23 05:01:47;;;;;;;5.43;2.69;;;;;;;20.05;47.68;99215.23;366324;107;1969930;-73
2021/07/23 05:03:05;;;;;;;6.19;3.16;;;;;;;20.18;47.75;99203.66;390236;104;1985927;-74
2021/07/23 05:04:11;;;;;;;7.20;3.27;;;;;;;20.12;47.57;99208.34;375265;107;1962058;-73
2021/07/23 05:05:35;;;;;;;8.98;3.21;;;;;;;20.17;47.41;99199.29;320010;109;2082911;-71
2021/07/23 05:06:48;;;;;;;8.83;3.24;;;;;;;20.24;47.41;99197.05;394645;104;1995093;-71
2021/07/23 05:08:00;;;;;;;7.15;3.37;;;;;;;20.25;46.70;99212.42;361302;105;2364030;-72
2021/07/23 05:09:25;;;;;;;11.49;3.79;;;;;;;20.18;46.93;99211.89;315807;109;2862367;-71
2021/07/23 05:10:40;;;;;;;10.89;4.96;;;;;;;20.31;47.08;99213.21;393655;104;2079760;-71
2021/07/23 05:11:46;;;;;;;8.69;3.24;;;;;;;20.27;47.09;99212.12;337724;105;2692996;-72
2021/07/23 05:13:00;;;;;;;7.71;3.74;;;;;;;20.39;47.04;99218.11;403529;101;1986030;-71
2021/07/23 05:14:19;;;;;;;9.85;3.98;;;;;;;20.29;47.04;99215.41;375434;105;2896003;-71
2021/07/23 05:15:25;;;;;;;10.34;3.39;;;;;;;20.30;46.85;99217.88;363507;109;1963109;-71
2021/07/23 05:16:31;;;;;;;8.67;3.62;;;;;;;20.31;47.06;99214.02;326245;109;1979075;-71
2021/07/23 05:17:44;;;;;;;8.52;4.04;;;;;;;20.42;46.93;99221.10;390115;104;2071894;-72
2021/07/23 05:18:49;;;;;;;7.92;3.27;;;;;;;20.35;47.06;99212.38;373478;107;1970043;-71
2021/07/23 05:20:03;;;;;;;10.13;3.81;;;;;;;20.52;47.06;99209.27;345769;104;2791979;-72
2021/07/23 05:21:12;;;;;;;8.71;3.54;;;;;;;20.45;46.85;99216.16;369787;107;1961962;-72
2021/07/23 05:22:38;;;;;;;8.43;3.67;;;;;;;20.51;46.93;99210.38;368798;107;1964972;-72
2021/07/23 05:23:51;;;;;;;8.51;3.14;;;;;;;20.70;46.71;99209.75;383899;106;1985998;-71
2021/07/23 05:24:58;;;;;;;7.44;3.19;;;;;;;20.61;46.50;99210.36;324052;109;2801006;-71
2021/07/23 05:26:11;;;;;;;8.06;3.21;;;;;;;20.74;46.51;99219.86;398813;104;1987021;-71
2021/07/23 05:27:17;;;;;;;6.41;3.11;;;;;;;20.67;46.48;99221.28;382171;105;1961927;-72
2021/07/23 05:28:40;;;;;;;6.95;3.59;;;;;;;20.68;46.05;99221.00;379820;105;1963965;-70
2021/07/23 05:29:45;;;;;;;8.84;3.60;;;;;;;20.73;46.03;99229.21;379606;105;1962008;-71
2021/07/23 05:30:57;;;;;;;7.69;2.85;;;;;;;20.97;45.64;99220.28;389015;106;1986046;-72
2021/07/23 05:32:03;;;;;;;7.53;3.48;;;;;;;20.91;45.39;99221.43;368936;107;1962078;-72
2021/07/23 05:33:08;;;;;;;8.76;3.47;;;;;;;20.81;45.62;99200.34;337153;107;2502994;-72
2021/07/23 05:34:13;;;;;;;8.59;3.63;;;;;;;21.00;45.55;99217.77;328346;107;2007998;-72